Kennedy Grace — WDG9120 — position and weather

sailwx.info

Track history (hours):
 
Tides and Currents Weather Stations Pressure Air Temp Water Temp Dewpoint Dewpoint Depression Visibility Wind Speed Wind Dir Waves Ship Positions

Kennedy Grace

Owner: Settoon Towing, LLC, Houma, LA. More information available from US FCC via Universal Licensing System and Coast Guard Vessel Documentation Center.

Last reported at 2018-Feb-19 15:49 UTC. Time now 2018-Feb-23 08:41 UTC.
Position N 29°05' W 095°12'.

; draft 3 m.

Type: Towing. MMSI: 367584530.

Date/timePositionNaut miles runAvg speedWind from/ knotsBaromVisibWave heightAir tempDewpointWater temp
2018-Feb-19 15:49N 29°05' W 095°12'6 6.3
2018-Feb-19 14:47N 29°10' W 095°08'4 6.7
2018-Feb-19 14:16N 29°12' W 095°04'1 5.5
2018-Feb-19 14:00N 29°12' W 095°03'2 4.3
2018-Feb-19 13:27N 29°14' W 095°01'0 0.0
2018-Feb-19 13:00N 29°14' W 095°01'0 0.0
2018-Feb-19 12:30N 29°14' W 095°01'0 0.0
2018-Feb-19 11:54N 29°14' W 095°01'0 0.0
2018-Feb-19 11:29N 29°14' W 095°01'0 0.0
2018-Feb-19 10:58N 29°14' W 095°01'0 0.0
2018-Feb-19 10:26N 29°14' W 095°01'0 0.0
2018-Feb-19 09:59N 29°14' W 095°01'0 0.0
2018-Feb-19 09:30N 29°14' W 095°01'0 0.0
2018-Feb-19 09:00N 29°14' W 095°01'0 0.0
2018-Feb-19 08:25N 29°14' W 095°01'0 0.0
2018-Feb-19 08:00N 29°14' W 095°01'0 0.0
2018-Feb-19 07:30N 29°14' W 095°01'0 0.0
2018-Feb-19 07:00N 29°14' W 095°01'0 0.0
2018-Feb-19 06:30N 29°14' W 095°01'0 0.0
2018-Feb-19 06:00N 29°14' W 095°01'0 0.0
2018-Feb-19 05:30N 29°14' W 095°01'0 0.0
2018-Feb-19 05:00N 29°14' W 095°01'0 0.0
2018-Feb-19 04:25N 29°14' W 095°01'15 1.4
2018-Feb-18 18:10N 29°20' W 094°46'2 7.8
2018-Feb-18 17:58N 29°21' W 094°48'5 9.5
2018-Feb-18 17:30N 29°26' W 094°50'4 8.3
2018-Feb-18 16:58N 29°30' W 094°52'4 8.0
2018-Feb-18 16:30N 29°33' W 094°54'4 7.9
2018-Feb-18 16:00N 29°36' W 094°57'4 7.8
2018-Feb-18 15:30N 29°40' W 094°58'10 1.6
2018-Feb-18 09:40N 29°46' W 095°06'1 4.4
2018-Feb-18 09:29N 29°46' W 095°05'4 1.0
2018-Feb-18 05:32N 29°45' W 095°10'1 5.8
2018-Feb-18 05:21N 29°44' W 095°09'3 0.1
2018-Feb-16 23:36N 29°46' W 095°06'1 4.1
2018-Feb-16 23:26N 29°46' W 095°05'1 0.2
2018-Feb-16 17:49N 29°47' W 095°06'0 0.4
2018-Feb-16 17:30N 29°47' W 095°06'0 0.1
2018-Feb-16 16:09N 29°47' W 095°06'0 0.3
2018-Feb-16 15:42N 29°47' W 095°06'0 0.2
2018-Feb-16 15:17N 29°47' W 095°06'0 0.0
2018-Feb-16 10:12N 29°47' W 095°06'0 0.0
2018-Feb-16 09:54N 29°47' W 095°06'0 0.0
2018-Feb-16 09:26N 29°47' W 095°06'0 0.0
2018-Feb-16 08:52N 29°47' W 095°06'1 0.9
2018-Feb-16 07:40N 29°46' W 095°06'4 1.1
2018-Feb-16 04:21N 29°44' W 095°10'0 0.0
2018-Feb-15 13:48N 29°44' W 095°10'0 0.0
2018-Feb-15 13:12N 29°44' W 095°10'0 0.1
2018-Feb-15 12:50N 29°44' W 095°10'0 0.0
2018-Feb-15 08:30N 29°44' W 095°10'0 0.0
2018-Feb-15 07:58N 29°44' W 095°10'0 0.0
2018-Feb-15 07:30N 29°44' W 095°10'0 0.1
2018-Feb-15 07:00N 29°44' W 095°10'0 0.1
2018-Feb-15 06:30N 29°44' W 095°10'0 0.1
2018-Feb-15 05:59N 29°44' W 095°10'0 0.4
2018-Feb-15 05:30N 29°45' W 095°10'0 0.4
2018-Feb-15 05:00N 29°44' W 095°10'0 0.0
2018-Feb-15 04:28N 29°44' W 095°10'0 0.0
2018-Feb-15 04:00N 29°44' W 095°10'0 0.0
2018-Feb-15 03:30N 29°44' W 095°10'1 1.9
2018-Feb-15 02:51N 29°44' W 095°08'2 5.4
2018-Feb-15 02:27N 29°45' W 095°06'2 3.4
2018-Feb-15 01:50N 29°47' W 095°06'0 0.0
2018-Feb-15 00:08N 29°47' W 095°06'1 0.2
2018-Feb-14 20:41N 29°46' W 095°06'0 0.0
2018-Feb-14 20:26N 29°46' W 095°06'0 0.0
2018-Feb-14 19:26N 29°46' W 095°06'0 0.0
2018-Feb-14 18:55N 29°46' W 095°06'0 0.0
2018-Feb-14 18:29N 29°46' W 095°06'0 0.0
2018-Feb-14 17:44N 29°46' W 095°06'0 0.0
2018-Feb-14 17:30N 29°46' W 095°06'0 0.0
2018-Feb-14 16:49N 29°46' W 095°06'0 0.0
2018-Feb-14 13:59N 29°46' W 095°06'  
Track history (hours):
 
Tides and Currents Weather Stations Pressure Air Temp Water Temp Dewpoint Dewpoint Depression Visibility Wind Speed Wind Dir Waves Ship Positions

Kennedy Grace

Owner: Settoon Towing, LLC, Houma, LA. More information available from US FCC via Universal Licensing System and Coast Guard Vessel Documentation Center.

Last reported at 2018-Feb-19 15:49 UTC. Time now 2018-Feb-23 08:41 UTC.
Position N 29°05' W 095°12'.

; draft 3 m.

Type: Towing. MMSI: 367584530.

Date/timePositionNaut miles runAvg speedWind from/ knotsBaromVisibWave heightAir tempDewpointWater temp
2018-Feb-19 15:49N 29°05' W 095°12'6 6.3
2018-Feb-19 14:47N 29°10' W 095°08'4 6.7
2018-Feb-19 14:16N 29°12' W 095°04'1 5.5
2018-Feb-19 14:00N 29°12' W 095°03'2 4.3
2018-Feb-19 13:27N 29°14' W 095°01'0 0.0
2018-Feb-19 13:00N 29°14' W 095°01'0 0.0
2018-Feb-19 12:30N 29°14' W 095°01'0 0.0
2018-Feb-19 11:54N 29°14' W 095°01'0 0.0
2018-Feb-19 11:29N 29°14' W 095°01'0 0.0
2018-Feb-19 10:58N 29°14' W 095°01'0 0.0
2018-Feb-19 10:26N 29°14' W 095°01'0 0.0
2018-Feb-19 09:59N 29°14' W 095°01'0 0.0
2018-Feb-19 09:30N 29°14' W 095°01'0 0.0
2018-Feb-19 09:00N 29°14' W 095°01'0 0.0
2018-Feb-19 08:25N 29°14' W 095°01'0 0.0
2018-Feb-19 08:00N 29°14' W 095°01'0 0.0
2018-Feb-19 07:30N 29°14' W 095°01'0 0.0
2018-Feb-19 07:00N 29°14' W 095°01'0 0.0
2018-Feb-19 06:30N 29°14' W 095°01'0 0.0
2018-Feb-19 06:00N 29°14' W 095°01'0 0.0
2018-Feb-19 05:30N 29°14' W 095°01'0 0.0
2018-Feb-19 05:00N 29°14' W 095°01'0 0.0
2018-Feb-19 04:25N 29°14' W 095°01'15 1.4
2018-Feb-18 18:10N 29°20' W 094°46'2 7.8
2018-Feb-18 17:58N 29°21' W 094°48'5 9.5
2018-Feb-18 17:30N 29°26' W 094°50'4 8.3
2018-Feb-18 16:58N 29°30' W 094°52'4 8.0
2018-Feb-18 16:30N 29°33' W 094°54'4 7.9
2018-Feb-18 16:00N 29°36' W 094°57'4 7.8
2018-Feb-18 15:30N 29°40' W 094°58'10 1.6
2018-Feb-18 09:40N 29°46' W 095°06'1 4.4
2018-Feb-18 09:29N 29°46' W 095°05'4 1.0
2018-Feb-18 05:32N 29°45' W 095°10'1 5.8
2018-Feb-18 05:21N 29°44' W 095°09'3 0.1
2018-Feb-16 23:36N 29°46' W 095°06'1 4.1
2018-Feb-16 23:26N 29°46' W 095°05'1 0.2
2018-Feb-16 17:49N 29°47' W 095°06'0 0.4
2018-Feb-16 17:30N 29°47' W 095°06'0 0.1
2018-Feb-16 16:09N 29°47' W 095°06'0 0.3
2018-Feb-16 15:42N 29°47' W 095°06'0 0.2
2018-Feb-16 15:17N 29°47' W 095°06'0 0.0
2018-Feb-16 10:12N 29°47' W 095°06'0 0.0
2018-Feb-16 09:54N 29°47' W 095°06'0 0.0
2018-Feb-16 09:26N 29°47' W 095°06'0 0.0
2018-Feb-16 08:52N 29°47' W 095°06'1 0.9
2018-Feb-16 07:40N 29°46' W 095°06'4 1.1
2018-Feb-16 04:21N 29°44' W 095°10'0 0.0
2018-Feb-15 13:48N 29°44' W 095°10'0 0.0
2018-Feb-15 13:12N 29°44' W 095°10'0 0.1
2018-Feb-15 12:50N 29°44' W 095°10'0 0.0
2018-Feb-15 08:30N 29°44' W 095°10'0 0.0
2018-Feb-15 07:58N 29°44' W 095°10'0 0.0
2018-Feb-15 07:30N 29°44' W 095°10'0 0.1
2018-Feb-15 07:00N 29°44' W 095°10'0 0.1
2018-Feb-15 06:30N 29°44' W 095°10'0 0.1
2018-Feb-15 05:59N 29°44' W 095°10'0 0.4
2018-Feb-15 05:30N 29°45' W 095°10'0 0.4
2018-Feb-15 05:00N 29°44' W 095°10'0 0.0
2018-Feb-15 04:28N 29°44' W 095°10'0 0.0
2018-Feb-15 04:00N 29°44' W 095°10'0 0.0
2018-Feb-15 03:30N 29°44' W 095°10'1 1.9
2018-Feb-15 02:51N 29°44' W 095°08'2 5.4
2018-Feb-15 02:27N 29°45' W 095°06'2 3.4
2018-Feb-15 01:50N 29°47' W 095°06'0 0.0
2018-Feb-15 00:08N 29°47' W 095°06'1 0.2
2018-Feb-14 20:41N 29°46' W 095°06'0 0.0
2018-Feb-14 20:26N 29°46' W 095°06'0 0.0
2018-Feb-14 19:26N 29°46' W 095°06'0 0.0
2018-Feb-14 18:55N 29°46' W 095°06'0 0.0
2018-Feb-14 18:29N 29°46' W 095°06'0 0.0
2018-Feb-14 17:44N 29°46' W 095°06'0 0.0
2018-Feb-14 17:30N 29°46' W 095°06'0 0.0
2018-Feb-14 16:49N 29°46' W 095°06'0 0.0
2018-Feb-14 13:59N 29°46' W 095°06'  

Dump ship's entire track history